Time;durP1;ratioP1;P1;durP2;ratioP2;P2;SDS_P1;SDS_P2;PMS_P1;PMS_P2;Temp;Humidity;BMP_temperature;BMP_pressure;BME280_temperature;BME280_humidity;BME280_pressure;Samples;Min_cycle;Max_cycle;Signal;HPM_P1;HPM_P2
2022/03/04 00:01:12;;;;;;;17.33;15.73;;;;;;;-1.15;71.57;92424.38;5085508;28;20203;-79
2022/03/04 00:03:38;;;;;;;19.60;17.17;;;;;;;-0.95;71.87;92430.06;5087735;28;20738;-80
2022/03/04 00:06:03;;;;;;;19.30;17.50;;;;;;;-0.91;71.99;92420.94;5082807;28;20212;-79
2022/03/04 00:08:29;;;;;;;18.90;17.07;;;;;;;-0.85;71.95;92446.50;5087848;28;20228;-80
2022/03/04 00:10:55;;;;;;;18.80;17.00;;;;;;;-1.20;73.51;92442.94;5085521;28;20215;-82
2022/03/04 00:13:20;;;;;;;18.80;16.80;;;;;;;-1.17;73.22;92400.75;5085876;28;20224;-81
2022/03/04 00:15:46;;;;;;;17.60;15.97;;;;;;;-0.88;71.86;92441.00;5087856;28;20284;-80
2022/03/04 00:18:11;;;;;;;17.10;15.57;;;;;;;-1.09;71.67;92408.16;5087522;28;20220;-80
2022/03/04 00:20:37;;;;;;;16.33;14.93;;;;;;;-0.85;71.72;92445.72;5088086;28;20302;-80
2022/03/04 00:23:03;;;;;;;19.80;15.53;;;;;;;-1.04;71.97;92449.28;5086904;28;20224;-81
2022/03/04 00:25:28;;;;;;;17.10;15.30;;;;;;;-1.02;71.73;92419.88;5086597;28;20184;-80
2022/03/04 00:27:54;;;;;;;17.00;15.13;;;;;;;-1.33;72.32;92414.91;5086245;28;20235;-80
2022/03/04 00:30:19;;;;;;;16.00;14.27;;;;;;;-1.00;71.88;92433.28;5085728;28;20173;-80
2022/03/04 00:32:45;;;;;;;17.17;15.43;;;;;;;-0.90;72.06;92432.78;5086982;28;20239;-78
2022/03/04 00:35:11;;;;;;;16.63;14.93;;;;;;;-1.60;73.35;92397.44;5085890;28;20181;-78
2022/03/04 00:37:37;;;;;;;15.67;14.07;;;;;;;-1.39;72.52;92438.00;5085046;28;20224;-78
2022/03/04 00:40:04;;;;;;;14.80;13.50;;;;;;;-1.07;72.19;92435.09;5086863;28;20177;-78
2022/03/04 00:42:30;;;;;;;14.60;13.20;;;;;;;-1.09;71.82;92429.41;5086701;28;20285;-78
2022/03/04 00:44:55;;;;;;;15.10;13.90;;;;;;;-0.98;71.84;92428.69;5084444;28;20192;-77
2022/03/04 00:47:21;;;;;;;15.90;14.17;;;;;;;-1.04;72.60;92424.44;5090543;28;20235;-78
2022/03/04 00:49:47;;;;;;;15.00;13.50;;;;;;;-1.20;72.94;92417.34;5105064;28;20205;-78
2022/03/04 00:52:12;;;;;;;19.80;17.03;;;;;;;-1.17;72.41;92421.25;5089498;28;20296;-78
2022/03/04 00:54:37;;;;;;;19.27;17.23;;;;;;;-1.16;71.81;92425.34;5088477;28;20212;-79
2022/03/04 00:57:03;;;;;;;17.77;15.97;;;;;;;-1.25;72.30;92398.47;5087552;28;20220;-77
2022/03/04 00:59:29;;;;;;;18.13;16.33;;;;;;;-1.30;72.69;92406.00;5090575;28;20188;-78
2022/03/04 01:01:54;;;;;;;17.33;15.53;;;;;;;-1.04;72.64;92398.81;5089458;28;20193;-78
2022/03/04 01:04:20;;;;;;;16.80;15.03;;;;;;;-1.45;72.45;92387.66;5089123;28;20196;-78
2022/03/04 01:06:45;;;;;;;16.60;15.23;;;;;;;-1.75;75.15;92378.09;5090272;28;20222;-80
2022/03/04 01:09:11;;;;;;;17.43;15.73;;;;;;;-1.46;75.05;92376.63;5088441;28;20288;-79
2022/03/04 01:11:37;;;;;;;18.97;16.40;;;;;;;-1.81;74.93;92373.81;5092543;28;20184;-78
2022/03/04 01:14:04;;;;;;;17.03;15.33;;;;;;;-1.30;73.75;92401.66;5088490;28;20236;-78
2022/03/04 01:16:29;;;;;;;17.03;15.07;;;;;;;-1.30;74.54;92406.00;5089526;28;20218;-78
2022/03/04 01:18:55;;;;;;;16.77;15.13;;;;;;;-1.55;74.82;92387.34;5090279;28;20236;-79
2022/03/04 01:21:20;;;;;;;18.30;16.10;;;;;;;-1.50;74.81;92390.06;5090706;28;20283;-78
2022/03/04 01:23:46;;;;;;;17.77;15.97;;;;;;;-1.43;75.81;92395.91;5105747;28;20235;-78
2022/03/04 01:26:11;;;;;;;17.73;15.83;;;;;;;-1.92;74.99;92369.38;5087316;28;20196;-78
2022/03/04 01:28:37;;;;;;;16.60;15.10;;;;;;;-2.11;75.38;92349.06;5087958;28;20220;-79
2022/03/04 01:31:02;;;;;;;16.77;15.13;;;;;;;-1.52;75.49;92381.78;5087722;28;20188;-78
2022/03/04 01:33:28;;;;;;;18.20;15.77;;;;;;;-1.78;74.93;92388.75;5086633;28;20239;-78
2022/03/04 01:35:54;;;;;;;17.53;15.03;;;;;;;-1.68;74.48;92378.78;5089012;28;20173;-77
2022/03/04 01:38:19;;;;;;;17.93;15.67;;;;;;;-1.33;74.84;92383.38;5087095;28;20233;-78
2022/03/04 01:40:45;;;;;;;15.77;14.37;;;;;;;-1.89;75.85;92376.63;5103855;28;20208;-78
2022/03/04 01:43:10;;;;;;;16.03;14.53;;;;;;;-1.57;74.20;92367.06;5089193;28;20255;-79
2022/03/04 01:45:35;;;;;;;16.77;15.03;;;;;;;-1.51;73.99;92362.91;5087147;28;20200;-79
2022/03/04 01:48:01;;;;;;;17.93;16.13;;;;;;;-2.00;74.55;92308.28;5090035;28;20225;-77
2022/03/04 01:50:27;;;;;;;17.07;15.67;;;;;;;-1.51;74.78;92386.72;5086340;28;20260;-78
2022/03/04 01:52:52;;;;;;;16.00;14.13;;;;;;;-1.41;74.27;92384.44;5088492;28;20228;-78
2022/03/04 01:55:18;;;;;;;17.80;16.13;;;;;;;-1.40;74.86;92362.19;5087128;28;20194;-79
2022/03/04 01:57:43;;;;;;;16.57;14.37;;;;;;;-1.80;75.66;92370.25;5087209;28;20301;-79
2022/03/04 02:00:12;;;;;;;16.43;14.93;;;;;;;-1.17;74.26;92377.72;5089129;28;20190;-79
2022/03/04 02:02:37;;;;;;;16.17;14.70;;;;;;;-1.57;75.71;92363.75;5104189;28;20248;-79
2022/03/04 02:05:03;;;;;;;16.17;14.60;;;;;;;-1.66;75.42;92361.47;5088657;28;20193;-79
2022/03/04 02:07:29;;;;;;;20.00;17.90;;;;;;;-1.65;75.00;92373.25;5088339;28;20233;-79
2022/03/04 02:09:55;;;;;;;18.97;16.97;;;;;;;-1.59;74.82;92352.94;5085550;28;20207;-78
2022/03/04 02:12:20;;;;;;;18.23;16.53;;;;;;;-1.27;73.87;92359.47;5086411;28;20229;-78
2022/03/04 02:14:46;;;;;;;18.20;16.40;;;;;;;-1.72;74.53;92358.97;5089985;28;20239;-78
2022/03/04 02:17:11;;;;;;;18.27;16.17;;;;;;;-1.40;74.80;92369.88;5088843;28;20235;-78
2022/03/04 02:19:37;;;;;;;19.80;17.77;;;;;;;-1.30;74.43;92347.13;5090468;28;20185;-79
2022/03/04 02:22:04;;;;;;;17.63;15.57;;;;;;;-1.64;75.64;92368.94;5103392;28;20193;-79
2022/03/04 02:24:31;;;;;;;17.97;16.17;;;;;;;-1.29;74.79;92369.94;5090038;28;20188;-78
2022/03/04 02:27:00;;;;;;;21.57;18.17;;;;;;;-1.55;74.59;92362.53;5089007;28;20194;-78
2022/03/04 02:29:25;;;;;;;22.73;19.30;;;;;;;-1.82;76.47;92367.13;5085968;28;20215;-78
2022/03/04 02:31:52;;;;;;;22.60;18.63;;;;;;;-1.26;73.93;92345.72;5089258;28;20719;-78
2022/03/04 02:34:18;;;;;;;20.83;18.30;;;;;;;-1.75;75.82;92369.63;5087562;28;20225;-78
2022/03/04 02:36:45;;;;;;;20.83;18.63;;;;;;;-1.61;75.82;92373.63;5088903;28;20266;-78
2022/03/04 02:39:11;;;;;;;23.57;20.93;;;;;;;-1.91;76.22;92353.03;5087579;28;20247;-78
2022/03/04 02:41:37;;;;;;;25.60;20.03;;;;;;;-1.41;74.67;92356.28;5089889;28;20763;-79
2022/03/04 02:44:08;;;;;;;23.97;19.57;;;;;;;-1.56;75.27;92360.19;5086882;28;20217;-79
2022/03/04 02:46:34;;;;;;;25.57;20.77;;;;;;;-1.45;74.42;92349.25;5083748;28;20194;-77
2022/03/04 02:49:00;;;;;;;28.13;20.80;;;;;;;-1.17;74.04;92340.09;5104074;28;20287;-79
2022/03/04 02:51:26;;;;;;;26.47;21.27;;;;;;;-1.15;73.61;92357.81;5086523;28;20195;-78
2022/03/04 02:53:51;;;;;;;25.37;21.03;;;;;;;-1.33;74.59;92361.13;5087564;28;20252;-79
2022/03/04 02:56:18;;;;;;;21.93;18.33;;;;;;;-1.39;74.62;92351.75;5089862;28;20216;-79
2022/03/04 02:58:43;;;;;;;17.90;16.13;;;;;;;-1.19;73.46;92347.19;5085370;28;20234;-78
2022/03/04 03:01:08;;;;;;;18.30;16.53;;;;;;;-1.48;73.81;92321.53;5089509;28;20216;-79
2022/03/04 03:03:34;;;;;;;19.53;16.83;;;;;;;-1.38;75.19;92342.28;5085852;28;20250;-79
2022/03/04 03:05:59;;;;;;;18.80;16.80;;;;;;;-1.75;75.89;92332.03;5088095;28;20220;-78
2022/03/04 03:08:25;;;;;;;19.57;17.57;;;;;;;-1.44;73.78;92366.97;5087378;28;20292;-78
2022/03/04 03:10:50;;;;;;;21.17;18.83;;;;;;;-1.49;74.94;92340.44;5088362;28;20189;-78
2022/03/04 03:13:16;;;;;;;18.97;17.13;;;;;;;-1.79;75.71;92333.44;5087400;28;20228;-79
2022/03/04 03:15:42;;;;;;;20.03;17.50;;;;;;;-1.92;75.20;92336.13;5086873;28;20201;-79
2022/03/04 03:18:07;;;;;;;20.37;17.63;;;;;;;-1.67;75.43;92329.19;5103191;28;20243;-79
2022/03/04 03:20:33;;;;;;;19.10;17.30;;;;;;;-1.49;75.23;92332.78;5087749;28;20241;-79
2022/03/04 03:22:59;;;;;;;20.03;17.53;;;;;;;-1.78;75.01;92341.91;5085064;28;20232;-77
2022/03/04 03:25:24;;;;;;;21.10;18.50;;;;;;;-2.05;76.41;92333.69;5087070;28;20718;-78
2022/03/04 03:27:50;;;;;;;20.27;18.13;;;;;;;-1.54;75.25;92350.53;5087852;28;20250;-78
2022/03/04 03:30:15;;;;;;;18.97;16.97;;;;;;;-1.35;74.49;92357.22;5087024;28;20185;-79
2022/03/04 03:32:41;;;;;;;20.57;18.37;;;;;;;-1.75;75.77;92361.94;5087630;28;20243;-82
2022/03/04 03:35:10;;;;;;;20.47;18.40;;;;;;;-1.36;75.08;92369.25;5086828;28;20238;-79
2022/03/04 03:37:36;;;;;;;23.03;17.27;;;;;;;-1.43;73.93;92340.34;5086279;28;20231;-79
2022/03/04 03:40:05;;;;;;;18.90;16.77;;;;;;;-2.11;76.29;92352.41;5104018;28;20262;-79
2022/03/04 03:42:30;;;;;;;19.80;17.60;;;;;;;-1.51;74.71;92368.03;5085374;28;20227;-79
2022/03/04 03:44:55;;;;;;;19.53;17.57;;;;;;;-1.50;75.07;92343.97;5088596;28;20194;-78
2022/03/04 03:47:21;;;;;;;19.20;17.20;;;;;;;-2.02;76.49;92348.59;5087051;28;20247;-79
2022/03/04 03:49:46;;;;;;;19.53;17.27;;;;;;;-1.70;74.66;92350.06;5084081;28;20185;-79
2022/03/04 03:52:12;;;;;;;19.83;17.83;;;;;;;-1.72;74.31;92361.53;5087093;28;20235;-78
2022/03/04 03:54:37;;;;;;;19.10;17.03;;;;;;;-1.66;75.48;92361.47;5083672;28;20185;-79
2022/03/04 03:57:04;;;;;;;18.37;16.47;;;;;;;-1.99;75.34;92363.53;5086871;28;20197;-78
2022/03/04 03:59:29;;;;;;;18.17;16.27;;;;;;;-1.95;75.27;92335.75;5086656;28;20196;-78
2022/03/04 04:01:55;;;;;;;17.90;16.13;;;;;;;-1.89;75.65;92363.84;5086944;28;20257;-78
2022/03/04 04:04:21;;;;;;;20.60;18.03;;;;;;;-2.11;75.66;92362.66;5088092;28;20169;-79
2022/03/04 04:06:46;;;;;;;20.63;18.43;;;;;;;-2.04;75.89;92342.91;5084406;28;20219;-77
2022/03/04 04:09:12;;;;;;;20.10;17.80;;;;;;;-2.16;76.70;92341.25;5087568;28;20247;-79
2022/03/04 04:11:39;;;;;;;19.93;17.83;;;;;;;-2.33;77.98;92356.31;5088393;28;20180;-79
2022/03/04 04:14:05;;;;;;;20.77;18.67;;;;;;;-1.94;76.90;92368.00;5086540;28;20216;-79
2022/03/04 04:16:31;;;;;;;20.90;18.13;;;;;;;-2.08;77.16;92359.66;5086566;28;20197;-79
2022/03/04 04:18:57;;;;;;;19.07;17.10;;;;;;;-2.16;76.36;92349.69;5083626;28;20238;-78
2022/03/04 04:21:24;;;;;;;21.20;18.27;;;;;;;-2.04;77.69;92362.59;5086585;28;20204;-79
2022/03/04 04:23:50;;;;;;;20.93;18.93;;;;;;;-2.44;77.95;92346.75;5085546;28;20280;-79
2022/03/04 04:26:15;;;;;;;21.93;18.83;;;;;;;-2.52;77.78;92343.69;5088092;28;20184;-80
2022/03/04 04:28:41;;;;;;;20.90;18.80;;;;;;;-2.02;77.43;92371.63;5106907;28;20214;-78
2022/03/04 04:31:06;;;;;;;20.57;18.50;;;;;;;-2.55;78.01;92339.00;5086836;28;20251;-80
2022/03/04 04:33:32;;;;;;;20.83;18.77;;;;;;;-2.01;76.68;92362.94;5091022;28;20229;-80
2022/03/04 04:35:58;;;;;;;21.80;19.50;;;;;;;-1.70;75.36;92380.78;5090308;28;20195;-81
2022/03/04 04:38:23;;;;;;;20.60;17.90;;;;;;;-2.35;76.32;92348.06;5087694;28;20221;-84
2022/03/04 04:40:49;;;;;;;20.67;18.67;;;;;;;-1.75;76.38;92384.97;5088356;28;20192;-84
2022/03/04 04:43:14;;;;;;;19.87;17.77;;;;;;;-1.80;75.91;92388.16;5086240;28;20228;-85
2022/03/04 04:45:40;;;;;;;21.30;19.10;;;;;;;-2.12;76.05;92366.16;5087975;28;20204;-88
2022/03/04 04:48:06;;;;;;;20.70;18.70;;;;;;;-2.21;76.96;92369.97;5088634;28;20235;-89
2022/03/04 04:50:31;;;;;;;21.53;19.33;;;;;;;-1.83;75.97;92380.91;5088204;28;20257;-83
2022/03/04 04:52:56;;;;;;;22.80;20.50;;;;;;;-2.03;77.07;92389.72;5088608;28;20437;-79
2022/03/04 04:55:22;;;;;;;21.20;18.97;;;;;;;-2.49;77.91;92399.47;5088179;28;20261;-79
2022/03/04 04:57:48;;;;;;;20.73;18.67;;;;;;;-2.45;78.30;92385.28;5088522;28;20227;-78
2022/03/04 05:00:14;;;;;;;21.93;18.40;;;;;;;-2.22;77.55;92382.97;5084338;28;20931;-80
2022/03/04 05:02:40;;;;;;;19.77;17.77;;;;;;;-2.50;78.52;92393.59;5087568;28;20235;-80
2022/03/04 05:05:06;;;;;;;23.07;19.53;;;;;;;-2.39;78.51;92398.03;5089217;28;20215;-78
2022/03/04 05:07:31;;;;;;;22.77;18.37;;;;;;;-2.91;78.62;92339.56;5103490;28;20250;-79
2022/03/04 05:09:57;;;;;;;21.00;18.80;;;;;;;-2.52;78.76;92364.88;5088725;28;20197;-76
2022/03/04 05:12:22;;;;;;;19.50;17.50;;;;;;;-2.04;77.56;92383.06;5089478;28;20266;-80
2022/03/04 05:14:48;;;;;;;23.53;18.60;;;;;;;-2.69;78.53;92358.72;5089200;28;20203;-81
2022/03/04 05:17:13;;;;;;;21.60;19.10;;;;;;;-1.94;77.30;92402.03;5089262;28;20236;-82
2022/03/04 05:19:39;;;;;;;23.27;18.67;;;;;;;-1.67;75.95;92395.69;5085651;28;20220;-75
2022/03/04 05:22:04;;;;;;;23.97;19.40;;;;;;;-2.05;76.62;92391.69;5088744;28;20208;-78
2022/03/04 05:24:30;;;;;;;20.50;18.20;;;;;;;-2.48;77.94;92340.50;5083992;28;20193;-80
2022/03/04 05:26:55;;;;;;;24.50;19.93;;;;;;;-1.76;76.04;92356.03;5089397;28;20185;-78
2022/03/04 05:29:21;;;;;;;34.73;24.33;;;;;;;-1.95;76.39;92387.69;5084949;28;20283;-80
2022/03/04 05:31:46;;;;;;;41.67;26.43;;;;;;;-1.58;76.16;92391.13;5085606;28;20196;-82
2022/03/04 05:34:12;;;;;;;47.87;27.77;;;;;;;-1.40;75.89;92391.13;5085406;28;20223;-82
2022/03/04 05:36:38;;;;;;;36.13;23.10;;;;;;;-1.95;77.36;92364.69;5088105;28;20212;-82
2022/03/04 05:39:04;;;;;;;33.67;22.93;;;;;;;-1.93;77.30;92372.16;5089494;28;20255;-79
2022/03/04 05:41:30;;;;;;;32.10;22.97;;;;;;;-1.27;76.77;92391.00;5088861;28;20184;-83
2022/03/04 05:43:56;;;;;;;31.17;22.57;;;;;;;-1.28;75.42;92388.66;5089330;28;20224;-83
2022/03/04 05:46:22;;;;;;;30.30;21.50;;;;;;;-1.16;74.55;92395.41;5087443;28;20231;-83
2022/03/04 05:48:47;;;;;;;29.97;23.00;;;;;;;-1.15;74.41;92383.41;5088727;28;20209;-84
2022/03/04 05:51:13;;;;;;;32.60;24.83;;;;;;;-0.99;73.49;92380.25;5087214;28;20248;-83
2022/03/04 05:53:39;;;;;;;39.13;25.27;;;;;;;-1.18;74.02;92388.97;5087808;28;20323;-83
2022/03/04 05:56:07;;;;;;;34.70;25.33;;;;;;;-1.20;74.02;92386.59;5087870;28;20199;-84
2022/03/04 05:58:33;;;;;;;35.47;25.93;;;;;;;-1.32;75.33;92400.31;5084661;28;20304;-84
2022/03/04 06:00:59;;;;;;;36.80;26.10;;;;;;;-1.44;76.02;92409.69;5104800;28;20177;-84
2022/03/04 06:03:25;;;;;;;35.43;25.77;;;;;;;-1.15;74.46;92398.78;5103479;28;20284;-84
2022/03/04 06:05:51;;;;;;;38.83;29.20;;;;;;;-0.80;72.62;92374.13;5088006;28;20197;-84
2022/03/04 06:08:17;;;;;;;37.73;28.07;;;;;;;-0.62;72.83;92374.88;5086874;28;20255;-84
2022/03/04 06:10:43;;;;;;;42.50;31.43;;;;;;;-0.33;72.62;92409.19;5087633;28;20207;-84
2022/03/04 06:13:08;;;;;;;52.60;36.33;;;;;;;-0.73;74.25;92395.34;5103517;28;20232;-83
2022/03/04 06:15:34;;;;;;;51.03;34.53;;;;;;;-0.70;74.19;92380.28;5087738;28;20200;-84
2022/03/04 06:17:59;;;;;;;54.77;34.10;;;;;;;-0.29;74.18;92400.06;5088096;28;20225;-81
2022/03/04 06:20:25;;;;;;;52.70;35.20;;;;;;;0.00;72.53;92378.75;5088748;28;20184;-83
2022/03/04 06:22:50;;;;;;;45.90;33.67;;;;;;;0.30;71.92;92409.44;5086481;28;20303;-84
2022/03/04 06:25:16;;;;;;;49.07;34.87;;;;;;;0.40;71.52;92405.34;5090119;28;20181;-84
2022/03/04 06:27:55;;;;;;;53.80;36.43;;;;;;;0.58;69.82;92384.69;5085154;28;20224;-84
2022/03/04 06:30:22;;;;;;;49.77;35.53;;;;;;;0.48;70.17;92396.53;5088133;28;20200;-84
2022/03/04 06:32:49;;;;;;;54.27;35.43;;;;;;;0.78;69.67;92402.34;5085967;28;20239;-85
2022/03/04 06:35:15;;;;;;;45.40;32.53;;;;;;;0.75;68.80;92383.00;5103551;28;20188;-84
2022/03/04 06:37:41;;;;;;;49.87;33.50;;;;;;;0.84;68.33;92375.75;5088101;28;20228;-84
2022/03/04 06:40:07;;;;;;;45.00;32.70;;;;;;;1.20;67.46;92412.19;5088153;28;20192;-84
2022/03/04 06:42:33;;;;;;;46.47;30.73;;;;;;;1.02;67.19;92412.34;5086105;28;20232;-83
2022/03/04 06:44:59;;;;;;;39.10;29.10;;;;;;;1.24;66.70;92409.97;5088554;28;20231;-85
2022/03/04 06:47:24;;;;;;;42.53;30.67;;;;;;;1.24;65.75;92408.19;5086792;28;20232;-85
2022/03/04 06:49:50;;;;;;;41.60;28.53;;;;;;;0.97;66.19;92425.09;5085904;28;20243;-83
2022/03/04 06:52:16;;;;;;;42.33;31.90;;;;;;;1.12;66.21;92425.41;5085381;28;20228;-85
2022/03/04 06:54:41;;;;;;;51.23;33.03;;;;;;;0.87;68.24;92432.56;5086437;28;20178;-84
2022/03/04 06:57:07;;;;;;;50.20;36.67;;;;;;;0.53;68.91;92401.78;5087572;28;20652;-85
2022/03/04 06:59:33;;;;;;;62.60;37.83;;;;;;;0.86;68.51;92428.44;5086452;28;20200;-83
2022/03/04 07:01:59;;;;;;;74.40;42.47;;;;;;;0.53;70.61;92399.97;5104815;28;20223;-83
2022/03/04 07:04:24;;;;;;;73.53;41.17;;;;;;;0.95;69.74;92419.38;5101222;28;20188;-85
2022/03/04 07:06:50;;;;;;;74.87;41.97;;;;;;;1.06;70.11;92446.88;5088801;28;21042;-84
2022/03/04 07:09:16;;;;;;;72.47;42.50;;;;;;;1.37;68.63;92427.72;5086168;28;20213;-84
2022/03/04 07:11:42;;;;;;;75.10;45.73;;;;;;;0.37;71.19;92421.19;5085915;28;20274;-85
2022/03/04 07:14:07;;;;;;;78.93;49.30;;;;;;;1.02;70.37;92445.78;5085825;28;20235;-85
2022/03/04 07:16:33;;;;;;;84.23;45.20;;;;;;;0.37;70.32;92399.88;5086936;28;20639;-84
2022/03/04 07:18:58;;;;;;;68.97;42.73;;;;;;;0.83;70.24;92426.34;5085785;28;20718;-84
2022/03/04 07:21:24;;;;;;;70.13;43.47;;;;;;;1.26;68.96;92438.81;5089288;28;20184;-84
2022/03/04 07:23:49;;;;;;;81.43;44.57;;;;;;;1.45;68.07;92433.28;5084818;28;20304;-84
2022/03/04 07:26:16;;;;;;;70.97;44.10;;;;;;;1.58;68.05;92422.75;5086832;28;20185;-85
2022/03/04 07:28:41;;;;;;;73.77;44.63;;;;;;;1.53;68.58;92440.63;5086191;28;20253;-84
2022/03/04 07:31:07;;;;;;;69.43;41.07;;;;;;;1.63;67.13;92407.38;5086537;28;20196;-84
2022/03/04 07:33:33;;;;;;;71.37;44.27;;;;;;;1.41;67.01;92413.38;5086733;28;20224;-84
2022/03/04 07:36:01;;;;;;;65.23;45.60;;;;;;;2.12;66.88;92428.34;5085351;28;20181;-84
2022/03/04 07:38:26;;;;;;;75.77;46.80;;;;;;;2.66;64.94;92459.34;5087951;28;20224;-84
2022/03/04 07:40:53;;;;;;;63.50;42.67;;;;;;;2.62;63.41;92453.13;5086312;28;20195;-84
2022/03/04 07:43:22;;;;;;;66.63;42.23;;;;;;;2.75;62.88;92434.78;5086696;28;20233;-84
2022/03/04 07:45:47;;;;;;;70.60;43.07;;;;;;;2.82;64.23;92450.06;5088535;28;20184;-85
2022/03/04 07:48:13;;;;;;;67.50;43.93;;;;;;;2.70;63.97;92423.59;5084110;28;20213;-85
2022/03/04 07:50:38;;;;;;;76.17;48.07;;;;;;;2.96;62.81;92443.56;5088822;28;20287;-84
2022/03/04 07:53:04;;;;;;;81.10;47.10;;;;;;;2.71;63.67;92425.13;5085616;28;20220;-81
2022/03/04 07:55:29;;;;;;;73.83;46.80;;;;;;;2.90;63.62;92439.34;5091389;28;20231;-82
2022/03/04 07:57:55;;;;;;;78.73;48.60;;;;;;;3.04;62.85;92453.47;5091275;28;20244;-83
2022/03/04 08:00:24;;;;;;;81.33;49.90;;;;;;;2.52;64.13;92437.47;5089210;28;20185;-82
2022/03/04 08:02:52;;;;;;;69.50;46.23;;;;;;;2.34;64.38;92421.47;5091248;28;20224;-82
2022/03/04 08:05:17;;;;;;;83.00;46.97;;;;;;;2.54;64.01;92419.22;5092198;28;20334;-82
2022/03/04 08:07:43;;;;;;;74.37;45.77;;;;;;;2.34;65.03;92439.50;5090892;28;20216;-84
2022/03/04 08:10:10;;;;;;;67.90;44.63;;;;;;;2.96;62.67;92464.19;5091893;28;20177;-85
2022/03/04 08:12:37;;;;;;;59.00;38.83;;;;;;;2.98;62.10;92468.09;5087516;28;20239;-83
2022/03/04 08:15:04;;;;;;;56.13;36.57;;;;;;;2.43;61.78;92417.53;5092193;28;20192;-83
2022/03/04 08:17:30;;;;;;;55.03;36.27;;;;;;;3.13;59.27;92439.94;5090520;28;20229;-83
2022/03/04 08:19:55;;;;;;;50.23;34.60;;;;;;;3.37;59.37;92453.41;5088710;28;20200;-83
2022/03/04 08:22:21;;;;;;;44.50;33.43;;;;;;;3.82;57.75;92461.72;5092435;28;20236;-82
2022/03/04 08:24:46;;;;;;;44.33;32.73;;;;;;;3.97;57.29;92451.53;5086304;28;20173;-84
2022/03/04 08:27:12;;;;;;;38.87;28.27;;;;;;;3.68;55.45;92434.69;5091077;28;20237;-84
2022/03/04 08:29:37;;;;;;;35.83;27.27;;;;;;;3.61;56.52;92461.72;5090589;28;20219;-83
2022/03/04 08:32:03;;;;;;;28.83;24.87;;;;;;;3.88;54.19;92465.13;5089831;28;20219;-84
2022/03/04 08:34:29;;;;;;;31.33;24.13;;;;;;;3.56;55.10;92449.53;5092110;28;21358;-84
2022/03/04 08:36:54;;;;;;;22.93;20.47;;;;;;;3.41;55.27;92435.66;5088019;28;20189;-81
2022/03/04 08:39:20;;;;;;;26.23;21.80;;;;;;;3.61;54.20;92472.81;5091278;28;20199;-84
2022/03/04 08:41:45;;;;;;;25.93;21.27;;;;;;;3.57;54.96;92465.78;5090628;28;20212;-85
2022/03/04 08:44:11;;;;;;;22.17;18.40;;;;;;;3.50;52.95;92458.25;5087953;28;20223;-84
2022/03/04 08:46:36;;;;;;;23.23;19.57;;;;;;;3.75;53.13;92468.09;5092188;28;20207;-84
2022/03/04 08:49:03;;;;;;;21.93;18.30;;;;;;;3.66;52.35;92490.94;5091234;28;20217;-83
2022/03/04 08:51:28;;;;;;;27.67;21.77;;;;;;;3.26;53.38;92454.31;5089841;28;20193;-84
2022/03/04 08:53:54;;;;;;;31.43;22.00;;;;;;;2.88;55.61;92487.81;5090517;28;20236;-84
2022/03/04 08:56:20;;;;;;;28.13;22.43;;;;;;;2.36;56.50;92453.72;5087989;28;20199;-82
2022/03/04 08:58:46;;;;;;;23.93;20.33;;;;;;;2.84;55.48;92450.59;5091174;28;20232;-83
2022/03/04 09:01:11;;;;;;;28.67;23.13;;;;;;;2.65;56.19;92457.00;5090023;28;20665;-84
2022/03/04 09:03:37;;;;;;;33.67;23.23;;;;;;;2.88;57.03;92462.03;5106177;28;20362;-84
2022/03/04 09:06:03;;;;;;;23.97;21.33;;;;;;;2.49;57.82;92427.66;5089037;28;20188;-84
2022/03/04 09:08:28;;;;;;;24.43;21.70;;;;;;;2.85;57.01;92470.19;5089252;28;20238;-82
2022/03/04 09:10:54;;;;;;;22.47;19.03;;;;;;;2.87;56.03;92466.38;5091600;28;20219;-85
2022/03/04 09:13:19;;;;;;;27.43;21.20;;;;;;;3.20;54.35;92465.56;5103969;28;20240;-84
2022/03/04 09:15:45;;;;;;;28.17;22.03;;;;;;;2.63;55.05;92453.91;5089805;28;20273;-84
2022/03/04 09:18:10;;;;;;;31.87;22.97;;;;;;;2.66;56.38;92438.72;5088275;28;20224;-85
2022/03/04 09:20:36;;;;;;;23.13;20.67;;;;;;;2.55;56.89;92469.75;5089024;28;20200;-84
2022/03/04 09:23:01;;;;;;;23.90;19.47;;;;;;;2.71;54.41;92446.53;5090294;28;20232;-85
2022/03/04 09:25:27;;;;;;;24.67;21.00;;;;;;;2.74;56.14;92455.63;5084978;28;20199;-81
2022/03/04 09:27:53;;;;;;;29.13;20.77;;;;;;;2.68;55.51;92439.28;5091338;28;20216;-84
2022/03/04 09:30:19;;;;;;;24.00;20.53;;;;;;;2.81;54.87;92458.81;5089984;28;20176;-85
2022/03/04 09:32:44;;;;;;;35.97;22.80;;;;;;;2.98;55.93;92469.88;5087404;28;20223;-84
2022/03/04 09:35:10;;;;;;;27.07;21.87;;;;;;;3.11;56.04;92482.47;5091153;28;20177;-85
2022/03/04 09:37:36;;;;;;;29.20;24.23;;;;;;;2.91;56.43;92474.44;5088388;28;20232;-85
2022/03/04 09:40:03;;;;;;;22.33;20.23;;;;;;;3.36;55.05;92475.09;5088494;28;20184;-85
2022/03/04 09:42:29;;;;;;;25.83;20.67;;;;;;;3.77;54.00;92481.50;5090122;28;20228;-85
2022/03/04 09:44:55;;;;;;;29.97;21.47;;;;;;;3.57;54.37;92466.56;5086565;28;20203;-85
2022/03/04 09:47:22;;;;;;;21.77;19.40;;;;;;;3.76;54.01;92485.91;5105876;28;20237;-83
2022/03/04 09:49:49;;;;;;;25.67;20.40;;;;;;;3.39;52.89;92463.50;5088640;28;20299;-83
2022/03/04 09:52:15;;;;;;;25.00;21.30;;;;;;;3.46;53.57;92464.09;5088630;28;20217;-85
2022/03/04 09:54:42;;;;;;;24.20;20.93;;;;;;;3.62;55.26;92484.72;5089049;28;20193;-85
2022/03/04 09:57:07;;;;;;;26.77;20.90;;;;;;;3.62;54.53;92476.16;5088127;28;20196;-85
2022/03/04 09:59:33;;;;;;;27.67;21.63;;;;;;;3.57;54.62;92471.72;5089955;28;20197;-85
2022/03/04 10:01:59;;;;;;;24.57;22.07;;;;;;;2.83;55.78;92461.94;5102927;28;20191;-84
2022/03/04 10:04:28;;;;;;;28.57;22.33;;;;;;;3.28;55.26;92476.25;5087241;28;20206;-83
2022/03/04 10:06:54;;;;;;;27.60;22.23;;;;;;;3.18;55.57;92478.69;5088302;28;20176;-84
2022/03/04 10:09:52;;;;;;;25.87;21.73;;;;;;;3.20;55.10;92457.84;5104887;28;20211;-81
2022/03/04 10:12:20;;;;;;;26.73;23.03;;;;;;;3.28;54.65;92468.50;5075851;28;20923;-84
2022/03/04 10:15:06;;;;;;;24.47;21.87;;;;;;;3.01;55.04;92451.38;5088467;28;20198;-84
2022/03/04 10:17:34;;;;;;;29.23;21.90;;;;;;;3.15;56.01;92473.22;5102379;28;20331;-85
2022/03/04 10:20:02;;;;;;;32.80;22.30;;;;;;;3.54;54.10;92485.13;5087553;28;20204;-84
2022/03/04 10:22:33;;;;;;;27.53;23.17;;;;;;;3.49;55.21;92474.72;5087436;28;20229;-85
2022/03/04 10:24:59;;;;;;;32.60;24.63;;;;;;;3.30;57.76;92468.28;5087778;28;20188;-83
2022/03/04 10:27:25;;;;;;;29.30;22.57;;;;;;;3.27;56.61;92466.16;5089351;28;21009;-85
2022/03/04 10:29:51;;;;;;;29.63;23.50;;;;;;;3.15;57.27;92462.91;5087771;28;20200;-83
2022/03/04 10:32:27;;;;;;;27.67;23.77;;;;;;;2.92;57.55;92442.47;5087044;28;20246;-85
2022/03/04 10:35:04;;;;;;;30.10;24.67;;;;;;;3.42;57.33;92453.50;5088058;28;20255;-85
2022/03/04 10:37:56;;;;;;;35.57;23.13;;;;;;;3.67;56.29;92465.91;5085648;28;20224;-85
2022/03/04 10:40:23;;;;;;;30.10;23.53;;;;;;;3.81;54.84;92457.59;5104022;28;20283;-82
2022/03/04 10:42:52;;;;;;;30.17;25.43;;;;;;;3.69;55.61;92454.31;5081275;28;20228;-78
2022/03/04 10:45:21;;;;;;;29.63;24.83;;;;;;;3.78;53.99;92445.16;5087135;28;20208;-82
2022/03/04 10:47:49;;;;;;;31.17;24.10;;;;;;;3.95;53.33;92448.44;5084568;28;20335;-82
2022/03/04 10:50:39;;;;;;;33.90;25.93;;;;;;;3.65;53.39;92369.88;5085551;28;20225;-82
2022/03/04 10:53:05;;;;;;;29.83;24.77;;;;;;;4.19;53.14;92434.22;5073120;28;20290;-80
2022/03/04 10:55:35;;;;;;;32.83;24.40;;;;;;;4.24;52.59;92434.25;5101603;28;20196;-81
2022/03/04 10:58:07;;;;;;;27.97;23.97;;;;;;;3.60;54.62;92401.56;5083469;28;20268;-81
2022/03/04 11:00:37;;;;;;;35.20;23.63;;;;;;;3.87;52.94;92406.75;5085962;28;20957;-80
2022/03/04 11:03:05;;;;;;;31.53;23.93;;;;;;;3.96;54.85;92434.50;5082238;28;20261;-79
2022/03/04 11:05:32;;;;;;;37.43;24.03;;;;;;;3.57;55.34;92425.28;5087012;28;20200;-78
2022/03/04 11:07:58;;;;;;;38.10;27.13;;;;;;;3.38;63.12;92371.66;5086192;28;20231;-77
2022/03/04 11:10:24;;;;;;;35.17;25.30;;;;;;;3.49;55.95;92415.38;5084794;28;20193;-78
2022/03/04 11:12:52;;;;;;;34.27;24.83;;;;;;;3.70;56.50;92408.66;5084037;28;20231;-78
2022/03/04 11:15:19;;;;;;;33.80;24.77;;;;;;;3.67;56.03;92407.34;5084776;28;20185;-78
2022/03/04 11:17:48;;;;;;;32.13;24.60;;;;;;;3.84;56.21;92407.25;5087344;28;20228;-79